sensor_id;sensor_type;location;lat;lon;timestamp;P1;durP1;ratioP1;P2;durP2;ratioP2
47764;SDS011;33529;49.242;8.670;2024-02-16T00:00:38;5.05;;;3.65;;
47764;SDS011;33529;49.242;8.670;2024-02-16T00:03:05;5.30;;;3.65;;
47764;SDS011;33529;49.242;8.670;2024-02-16T00:05:32;7.38;;;3.70;;
47764;SDS011;33529;49.242;8.670;2024-02-16T00:07:59;4.60;;;3.40;;
47764;SDS011;33529;49.242;8.670;2024-02-16T00:10:26;6.35;;;3.80;;
47764;SDS011;33529;49.242;8.670;2024-02-16T00:12:52;3.92;;;2.95;;
47764;SDS011;33529;49.242;8.670;2024-02-16T00:15:19;4.68;;;3.72;;
47764;SDS011;33529;49.242;8.670;2024-02-16T00:17:49;6.03;;;3.78;;
47764;SDS011;33529;49.242;8.670;2024-02-16T00:20:17;5.40;;;4.20;;
47764;SDS011;33529;49.242;8.670;2024-02-16T00:22:45;5.95;;;3.85;;
47764;SDS011;33529;49.242;8.670;2024-02-16T00:25:12;5.55;;;3.83;;
47764;SDS011;33529;49.242;8.670;2024-02-16T00:27:39;6.07;;;3.88;;
47764;SDS011;33529;49.242;8.670;2024-02-16T00:30:06;5.22;;;3.80;;
47764;SDS011;33529;49.242;8.670;2024-02-16T00:32:34;5.43;;;3.70;;
47764;SDS011;33529;49.242;8.670;2024-02-16T00:35:01;5.65;;;3.60;;
47764;SDS011;33529;49.242;8.670;2024-02-16T00:37:27;6.40;;;4.28;;
47764;SDS011;33529;49.242;8.670;2024-02-16T00:39:54;6.50;;;3.67;;
47764;SDS011;33529;49.242;8.670;2024-02-16T00:42:21;5.75;;;4.32;;
47764;SDS011;33529;49.242;8.670;2024-02-16T00:44:53;7.82;;;4.97;;
47764;SDS011;33529;49.242;8.670;2024-02-16T00:47:19;6.20;;;4.40;;
47764;SDS011;33529;49.242;8.670;2024-02-16T00:49:46;6.95;;;4.47;;
47764;SDS011;33529;49.242;8.670;2024-02-16T00:52:13;6.13;;;4.72;;
47764;SDS011;33529;49.242;8.670;2024-02-16T00:54:40;6.53;;;3.65;;
47764;SDS011;33529;49.242;8.670;2024-02-16T00:57:06;5.85;;;4.20;;
47764;SDS011;33529;49.242;8.670;2024-02-16T00:59:34;6.28;;;4.13;;
47764;SDS011;33529;49.242;8.670;2024-02-16T01:02:01;6.95;;;4.00;;
47764;SDS011;33529;49.242;8.670;2024-02-16T01:04:28;6.00;;;4.35;;
47764;SDS011;33529;49.242;8.670;2024-02-16T01:06:56;6.80;;;4.72;;
47764;SDS011;33529;49.242;8.670;2024-02-16T01:09:23;5.28;;;4.13;;
47764;SDS011;33529;49.242;8.670;2024-02-16T01:11:49;7.22;;;4.50;;
47764;SDS011;33529;49.242;8.670;2024-02-16T01:14:17;6.63;;;4.47;;
47764;SDS011;33529;49.242;8.670;2024-02-16T01:16:43;7.07;;;4.13;;
47764;SDS011;33529;49.242;8.670;2024-02-16T01:19:10;5.72;;;3.92;;
47764;SDS011;33529;49.242;8.670;2024-02-16T01:21:37;5.18;;;4.45;;
47764;SDS011;33529;49.242;8.670;2024-02-16T01:24:04;5.25;;;4.25;;
47764;SDS011;33529;49.242;8.670;2024-02-16T01:26:32;6.85;;;4.70;;
47764;SDS011;33529;49.242;8.670;2024-02-16T01:28:58;6.45;;;4.70;;
47764;SDS011;33529;49.242;8.670;2024-02-16T01:31:26;5.97;;;4.35;;
47764;SDS011;33529;49.242;8.670;2024-02-16T01:33:52;5.18;;;3.80;;
47764;SDS011;33529;49.242;8.670;2024-02-16T01:36:19;7.93;;;4.60;;
47764;SDS011;33529;49.242;8.670;2024-02-16T01:38:46;7.35;;;4.55;;
47764;SDS011;33529;49.242;8.670;2024-02-16T01:41:13;9.02;;;4.60;;
47764;SDS011;33529;49.242;8.670;2024-02-16T01:43:41;11.75;;;4.78;;
47764;SDS011;33529;49.242;8.670;2024-02-16T01:46:08;6.00;;;4.03;;
47764;SDS011;33529;49.242;8.670;2024-02-16T01:48:35;5.18;;;3.72;;
47764;SDS011;33529;49.242;8.670;2024-02-16T01:51:03;6.03;;;4.20;;
47764;SDS011;33529;49.242;8.670;2024-02-16T01:53:30;7.50;;;4.53;;
47764;SDS011;33529;49.242;8.670;2024-02-16T01:55:57;5.85;;;3.50;;
47764;SDS011;33529;49.242;8.670;2024-02-16T01:58:24;6.57;;;4.38;;
47764;SDS011;33529;49.242;8.670;2024-02-16T02:00:53;7.38;;;4.22;;
47764;SDS011;33529;49.242;8.670;2024-02-16T02:03:20;5.55;;;4.05;;
47764;SDS011;33529;49.242;8.670;2024-02-16T02:05:49;5.55;;;3.85;;
47764;SDS011;33529;49.242;8.670;2024-02-16T02:08:17;5.90;;;4.55;;
47764;SDS011;33529;49.242;8.670;2024-02-16T02:10:44;5.97;;;4.03;;
47764;SDS011;33529;49.242;8.670;2024-02-16T02:13:11;5.82;;;4.22;;
47764;SDS011;33529;49.242;8.670;2024-02-16T02:15:37;7.43;;;4.43;;
47764;SDS011;33529;49.242;8.670;2024-02-16T02:18:05;6.05;;;3.90;;
47764;SDS011;33529;49.242;8.670;2024-02-16T02:20:32;6.03;;;3.83;;
47764;SDS011;33529;49.242;8.670;2024-02-16T02:23:00;5.15;;;3.80;;
47764;SDS011;33529;49.242;8.670;2024-02-16T02:25:27;5.38;;;3.67;;
47764;SDS011;33529;49.242;8.670;2024-02-16T02:27:55;6.20;;;3.90;;
47764;SDS011;33529;49.242;8.670;2024-02-16T02:30:22;5.70;;;3.78;;
47764;SDS011;33529;49.242;8.670;2024-02-16T02:32:49;5.35;;;4.13;;
47764;SDS011;33529;49.242;8.670;2024-02-16T02:35:16;5.82;;;3.90;;
47764;SDS011;33529;49.242;8.670;2024-02-16T02:37:44;5.25;;;4.05;;
47764;SDS011;33529;49.242;8.670;2024-02-16T02:40:11;5.90;;;4.18;;
47764;SDS011;33529;49.242;8.670;2024-02-16T02:42:38;7.10;;;4.20;;
47764;SDS011;33529;49.242;8.670;2024-02-16T02:45:05;5.45;;;4.03;;
47764;SDS011;33529;49.242;8.670;2024-02-16T02:47:32;5.93;;;4.68;;
47764;SDS011;33529;49.242;8.670;2024-02-16T02:49:59;7.93;;;4.50;;
47764;SDS011;33529;49.242;8.670;2024-02-16T02:52:26;7.18;;;4.72;;
47764;SDS011;33529;49.242;8.670;2024-02-16T02:54:53;6.00;;;4.55;;
47764;SDS011;33529;49.242;8.670;2024-02-16T02:57:19;7.47;;;4.43;;
47764;SDS011;33529;49.242;8.670;2024-02-16T02:59:46;6.82;;;4.63;;
47764;SDS011;33529;49.242;8.670;2024-02-16T03:02:13;5.85;;;4.63;;
47764;SDS011;33529;49.242;8.670;2024-02-16T03:04:40;5.97;;;4.32;;
47764;SDS011;33529;49.242;8.670;2024-02-16T03:07:07;6.20;;;4.53;;
47764;SDS011;33529;49.242;8.670;2024-02-16T03:09:34;6.18;;;4.18;;
47764;SDS011;33529;49.242;8.670;2024-02-16T03:12:01;6.57;;;4.15;;
47764;SDS011;33529;49.242;8.670;2024-02-16T03:14:28;6.28;;;4.93;;
47764;SDS011;33529;49.242;8.670;2024-02-16T03:16:55;6.20;;;4.45;;
47764;SDS011;33529;49.242;8.670;2024-02-16T03:19:21;9.90;;;4.80;;
47764;SDS011;33529;49.242;8.670;2024-02-16T03:21:49;6.22;;;4.18;;
47764;SDS011;33529;49.242;8.670;2024-02-16T03:24:16;5.75;;;4.47;;
47764;SDS011;33529;49.242;8.670;2024-02-16T03:26:43;7.10;;;4.70;;
47764;SDS011;33529;49.242;8.670;2024-02-16T03:29:10;5.95;;;4.05;;
47764;SDS011;33529;49.242;8.670;2024-02-16T03:31:36;6.35;;;4.50;;
47764;SDS011;33529;49.242;8.670;2024-02-16T03:34:03;6.70;;;4.78;;
47764;SDS011;33529;49.242;8.670;2024-02-16T03:36:30;6.60;;;5.18;;
47764;SDS011;33529;49.242;8.670;2024-02-16T03:38:57;7.93;;;4.68;;
47764;SDS011;33529;49.242;8.670;2024-02-16T03:41:24;8.07;;;4.72;;
47764;SDS011;33529;49.242;8.670;2024-02-16T03:43:51;6.28;;;3.95;;
47764;SDS011;33529;49.242;8.670;2024-02-16T03:46:18;5.55;;;4.60;;
47764;SDS011;33529;49.242;8.670;2024-02-16T03:48:45;5.20;;;4.15;;
47764;SDS011;33529;49.242;8.670;2024-02-16T03:51:12;5.45;;;4.50;;
47764;SDS011;33529;49.242;8.670;2024-02-16T03:53:39;5.75;;;4.43;;
47764;SDS011;33529;49.242;8.670;2024-02-16T03:56:06;6.85;;;4.32;;
47764;SDS011;33529;49.242;8.670;2024-02-16T03:58:34;9.75;;;4.82;;
47764;SDS011;33529;49.242;8.670;2024-02-16T04:01:01;6.03;;;4.30;;
47764;SDS011;33529;49.242;8.670;2024-02-16T04:03:28;7.32;;;4.35;;
47764;SDS011;33529;49.242;8.670;2024-02-16T04:05:55;5.43;;;4.28;;
47764;SDS011;33529;49.242;8.670;2024-02-16T04:08:22;6.50;;;4.68;;
47764;SDS011;33529;49.242;8.670;2024-02-16T04:10:49;6.20;;;4.40;;
47764;SDS011;33529;49.242;8.670;2024-02-16T04:13:16;6.80;;;4.60;;
47764;SDS011;33529;49.242;8.670;2024-02-16T04:15:43;6.18;;;4.45;;
47764;SDS011;33529;49.242;8.670;2024-02-16T04:18:10;6.07;;;4.18;;
47764;SDS011;33529;49.242;8.670;2024-02-16T04:20:37;5.05;;;4.13;;
47764;SDS011;33529;49.242;8.670;2024-02-16T04:23:04;6.00;;;4.78;;
47764;SDS011;33529;49.242;8.670;2024-02-16T04:25:31;6.20;;;4.82;;
47764;SDS011;33529;49.242;8.670;2024-02-16T04:27:58;6.80;;;4.65;;
47764;SDS011;33529;49.242;8.670;2024-02-16T04:30:25;6.45;;;4.63;;
47764;SDS011;33529;49.242;8.670;2024-02-16T04:32:52;6.50;;;4.72;;
47764;SDS011;33529;49.242;8.670;2024-02-16T04:35:20;6.53;;;4.72;;
47764;SDS011;33529;49.242;8.670;2024-02-16T04:37:46;5.25;;;4.25;;
47764;SDS011;33529;49.242;8.670;2024-02-16T04:40:13;7.55;;;5.43;;
47764;SDS011;33529;49.242;8.670;2024-02-16T04:42:40;6.85;;;4.82;;
47764;SDS011;33529;49.242;8.670;2024-02-16T04:45:07;6.28;;;4.53;;
47764;SDS011;33529;49.242;8.670;2024-02-16T04:47:37;6.10;;;4.88;;
47764;SDS011;33529;49.242;8.670;2024-02-16T04:50:05;6.70;;;4.97;;
47764;SDS011;33529;49.242;8.670;2024-02-16T04:52:36;7.28;;;4.70;;
47764;SDS011;33529;49.242;8.670;2024-02-16T04:55:05;6.90;;;5.18;;
47764;SDS011;33529;49.242;8.670;2024-02-16T04:57:33;6.38;;;4.70;;
47764;SDS011;33529;49.242;8.670;2024-02-16T05:00:00;6.05;;;4.10;;
47764;SDS011;33529;49.242;8.670;2024-02-16T05:02:27;8.43;;;5.07;;
47764;SDS011;33529;49.242;8.670;2024-02-16T05:04:54;5.82;;;4.72;;
47764;SDS011;33529;49.242;8.670;2024-02-16T05:07:21;6.78;;;5.32;;
47764;SDS011;33529;49.242;8.670;2024-02-16T05:09:48;6.65;;;5.32;;
47764;SDS011;33529;49.242;8.670;2024-02-16T05:12:16;6.45;;;5.13;;
47764;SDS011;33529;49.242;8.670;2024-02-16T05:14:47;6.45;;;5.25;;
47764;SDS011;33529;49.242;8.670;2024-02-16T05:17:15;5.70;;;4.90;;
47764;SDS011;33529;49.242;8.670;2024-02-16T05:19:42;7.60;;;5.80;;
47764;SDS011;33529;49.242;8.670;2024-02-16T05:22:09;6.88;;;5.38;;
47764;SDS011;33529;49.242;8.670;2024-02-16T05:24:36;6.85;;;5.47;;
47764;SDS011;33529;49.242;8.670;2024-02-16T05:27:03;7.75;;;5.57;;
47764;SDS011;33529;49.242;8.670;2024-02-16T05:29:30;7.38;;;6.03;;
47764;SDS011;33529;49.242;8.670;2024-02-16T05:31:57;8.32;;;5.85;;
47764;SDS011;33529;49.242;8.670;2024-02-16T05:34:24;7.35;;;5.45;;
47764;SDS011;33529;49.242;8.670;2024-02-16T05:36:52;8.55;;;5.35;;
47764;SDS011;33529;49.242;8.670;2024-02-16T05:39:19;8.73;;;5.35;;
47764;SDS011;33529;49.242;8.670;2024-02-16T05:42:08;6.45;;;4.70;;
47764;SDS011;33529;49.242;8.670;2024-02-16T05:44:35;6.15;;;5.00;;
47764;SDS011;33529;49.242;8.670;2024-02-16T05:47:03;7.30;;;5.68;;
47764;SDS011;33529;49.242;8.670;2024-02-16T05:49:30;8.10;;;5.90;;
47764;SDS011;33529;49.242;8.670;2024-02-16T05:51:57;6.18;;;5.13;;
47764;SDS011;33529;49.242;8.670;2024-02-16T05:54:46;6.75;;;5.07;;
47764;SDS011;33529;49.242;8.670;2024-02-16T05:57:14;6.05;;;5.25;;
47764;SDS011;33529;49.242;8.670;2024-02-16T05:59:42;6.95;;;5.18;;
47764;SDS011;33529;49.242;8.670;2024-02-16T06:02:09;6.85;;;5.07;;
47764;SDS011;33529;49.242;8.670;2024-02-16T06:04:38;8.25;;;5.15;;
47764;SDS011;33529;49.242;8.670;2024-02-16T06:07:05;8.60;;;6.05;;
47764;SDS011;33529;49.242;8.670;2024-02-16T06:09:33;7.18;;;5.68;;
47764;SDS011;33529;49.242;8.670;2024-02-16T06:12:02;8.00;;;5.45;;
47764;SDS011;33529;49.242;8.670;2024-02-16T06:14:30;7.50;;;5.68;;
47764;SDS011;33529;49.242;8.670;2024-02-16T06:16:57;7.35;;;6.30;;
47764;SDS011;33529;49.242;8.670;2024-02-16T06:19:43;7.45;;;5.72;;
47764;SDS011;33529;49.242;8.670;2024-02-16T06:22:10;7.75;;;5.72;;
47764;SDS011;33529;49.242;8.670;2024-02-16T06:24:37;7.97;;;5.20;;
47764;SDS011;33529;49.242;8.670;2024-02-16T06:27:04;7.95;;;5.80;;
47764;SDS011;33529;49.242;8.670;2024-02-16T06:29:31;8.30;;;5.85;;
47764;SDS011;33529;49.242;8.670;2024-02-16T06:31:57;7.65;;;5.50;;
47764;SDS011;33529;49.242;8.670;2024-02-16T06:34:24;8.80;;;5.55;;
47764;SDS011;33529;49.242;8.670;2024-02-16T06:36:51;7.22;;;5.40;;
47764;SDS011;33529;49.242;8.670;2024-02-16T06:39:18;9.35;;;5.45;;
47764;SDS011;33529;49.242;8.670;2024-02-16T06:41:46;7.85;;;6.55;;
47764;SDS011;33529;49.242;8.670;2024-02-16T06:44:14;9.77;;;7.88;;
47764;SDS011;33529;49.242;8.670;2024-02-16T06:46:41;8.55;;;5.40;;
47764;SDS011;33529;49.242;8.670;2024-02-16T06:49:09;8.38;;;6.13;;
47764;SDS011;33529;49.242;8.670;2024-02-16T06:51:36;6.82;;;5.10;;
47764;SDS011;33529;49.242;8.670;2024-02-16T06:54:03;8.20;;;6.10;;
47764;SDS011;33529;49.242;8.670;2024-02-16T06:56:31;6.82;;;5.45;;
47764;SDS011;33529;49.242;8.670;2024-02-16T06:58:58;7.80;;;5.70;;
47764;SDS011;33529;49.242;8.670;2024-02-16T07:01:25;7.90;;;6.28;;
47764;SDS011;33529;49.242;8.670;2024-02-16T07:03:55;8.65;;;6.38;;
47764;SDS011;33529;49.242;8.670;2024-02-16T07:06:22;7.93;;;5.60;;
47764;SDS011;33529;49.242;8.670;2024-02-16T07:08:49;9.35;;;6.10;;
47764;SDS011;33529;49.242;8.670;2024-02-16T07:11:17;6.70;;;5.90;;
47764;SDS011;33529;49.242;8.670;2024-02-16T07:13:45;7.53;;;5.90;;
47764;SDS011;33529;49.242;8.670;2024-02-16T07:16:12;7.43;;;6.63;;
47764;SDS011;33529;49.242;8.670;2024-02-16T07:18:40;7.60;;;6.80;;
47764;SDS011;33529;49.242;8.670;2024-02-16T07:21:08;9.95;;;7.00;;
47764;SDS011;33529;49.242;8.670;2024-02-16T07:23:36;10.07;;;7.45;;
47764;SDS011;33529;49.242;8.670;2024-02-16T07:26:03;11.73;;;8.50;;
47764;SDS011;33529;49.242;8.670;2024-02-16T07:28:33;11.82;;;9.00;;
47764;SDS011;33529;49.242;8.670;2024-02-16T07:31:01;14.32;;;10.10;;
47764;SDS011;33529;49.242;8.670;2024-02-16T07:33:28;7.03;;;5.90;;
47764;SDS011;33529;49.242;8.670;2024-02-16T07:35:56;10.57;;;6.07;;
47764;SDS011;33529;49.242;8.670;2024-02-16T07:38:23;6.05;;;5.32;;
47764;SDS011;33529;49.242;8.670;2024-02-16T07:40:50;7.38;;;5.13;;
47764;SDS011;33529;49.242;8.670;2024-02-16T07:43:17;9.13;;;6.60;;
47764;SDS011;33529;49.242;8.670;2024-02-16T07:45:45;7.88;;;5.70;;
47764;SDS011;33529;49.242;8.670;2024-02-16T07:48:12;6.80;;;5.72;;
47764;SDS011;33529;49.242;8.670;2024-02-16T07:50:39;6.72;;;5.63;;
47764;SDS011;33529;49.242;8.670;2024-02-16T07:53:06;7.18;;;5.07;;
47764;SDS011;33529;49.242;8.670;2024-02-16T07:55:33;6.20;;;5.53;;
47764;SDS011;33529;49.242;8.670;2024-02-16T07:58:00;6.78;;;5.32;;
47764;SDS011;33529;49.242;8.670;2024-02-16T08:00:27;6.22;;;5.63;;
47764;SDS011;33529;49.242;8.670;2024-02-16T08:02:54;5.85;;;5.22;;
47764;SDS011;33529;49.242;8.670;2024-02-16T08:05:21;6.53;;;5.68;;
47764;SDS011;33529;49.242;8.670;2024-02-16T08:07:49;7.47;;;5.20;;
47764;SDS011;33529;49.242;8.670;2024-02-16T08:10:19;6.50;;;4.88;;
47764;SDS011;33529;49.242;8.670;2024-02-16T08:12:48;5.82;;;4.32;;
47764;SDS011;33529;49.242;8.670;2024-02-16T08:15:15;5.28;;;4.10;;
47764;SDS011;33529;49.242;8.670;2024-02-16T08:17:49;7.28;;;5.45;;
47764;SDS011;33529;49.242;8.670;2024-02-16T08:20:17;6.50;;;4.88;;
47764;SDS011;33529;49.242;8.670;2024-02-16T08:22:44;7.70;;;5.72;;
47764;SDS011;33529;49.242;8.670;2024-02-16T08:25:11;7.93;;;5.13;;
47764;SDS011;33529;49.242;8.670;2024-02-16T08:27:38;6.28;;;4.53;;
47764;SDS011;33529;49.242;8.670;2024-02-16T08:30:06;7.63;;;5.07;;
47764;SDS011;33529;49.242;8.670;2024-02-16T08:32:35;7.72;;;5.35;;
47764;SDS011;33529;49.242;8.670;2024-02-16T08:35:02;7.75;;;4.88;;
47764;SDS011;33529;49.242;8.670;2024-02-16T08:37:30;7.95;;;4.88;;
47764;SDS011;33529;49.242;8.670;2024-02-16T08:39:57;6.47;;;5.03;;
47764;SDS011;33529;49.242;8.670;2024-02-16T08:42:24;6.90;;;5.30;;
47764;SDS011;33529;49.242;8.670;2024-02-16T08:44:51;6.50;;;5.05;;
47764;SDS011;33529;49.242;8.670;2024-02-16T08:47:18;6.82;;;5.38;;
47764;SDS011;33529;49.242;8.670;2024-02-16T08:49:45;6.70;;;5.07;;
47764;SDS011;33529;49.242;8.670;2024-02-16T08:52:12;6.63;;;5.25;;
47764;SDS011;33529;49.242;8.670;2024-02-16T08:54:39;11.23;;;6.25;;
47764;SDS011;33529;49.242;8.670;2024-02-16T08:57:06;7.85;;;5.68;;
47764;SDS011;33529;49.242;8.670;2024-02-16T08:59:33;10.38;;;5.28;;
47764;SDS011;33529;49.242;8.670;2024-02-16T09:02:00;6.75;;;5.85;;
47764;SDS011;33529;49.242;8.670;2024-02-16T09:04:27;6.35;;;4.20;;
47764;SDS011;33529;49.242;8.670;2024-02-16T09:06:54;6.25;;;4.53;;
47764;SDS011;33529;49.242;8.670;2024-02-16T09:09:21;9.15;;;5.28;;
47764;SDS011;33529;49.242;8.670;2024-02-16T09:11:49;5.15;;;3.92;;
47764;SDS011;33529;49.242;8.670;2024-02-16T09:14:16;6.18;;;3.67;;
47764;SDS011;33529;49.242;8.670;2024-02-16T09:16:43;5.20;;;3.88;;
47764;SDS011;33529;49.242;8.670;2024-02-16T09:19:10;5.85;;;4.00;;
47764;SDS011;33529;49.242;8.670;2024-02-16T09:21:37;5.55;;;3.78;;
47764;SDS011;33529;49.242;8.670;2024-02-16T09:24:04;5.35;;;4.10;;
47764;SDS011;33529;49.242;8.670;2024-02-16T09:26:36;5.35;;;4.43;;
47764;SDS011;33529;49.242;8.670;2024-02-16T09:29:03;7.43;;;4.53;;
47764;SDS011;33529;49.242;8.670;2024-02-16T09:31:30;5.65;;;4.28;;
47764;SDS011;33529;49.242;8.670;2024-02-16T09:33:57;4.85;;;4.10;;
47764;SDS011;33529;49.242;8.670;2024-02-16T09:36:24;9.10;;;4.20;;
47764;SDS011;33529;49.242;8.670;2024-02-16T09:38:51;6.85;;;4.32;;
47764;SDS011;33529;49.242;8.670;2024-02-16T09:41:17;6.65;;;4.20;;
47764;SDS011;33529;49.242;8.670;2024-02-16T09:43:45;6.25;;;4.18;;
47764;SDS011;33529;49.242;8.670;2024-02-16T09:46:12;10.35;;;5.53;;
47764;SDS011;33529;49.242;8.670;2024-02-16T09:48:39;6.60;;;4.55;;
47764;SDS011;33529;49.242;8.670;2024-02-16T09:51:08;6.40;;;4.40;;
47764;SDS011;33529;49.242;8.670;2024-02-16T09:53:35;7.93;;;5.38;;
47764;SDS011;33529;49.242;8.670;2024-02-16T09:56:04;5.30;;;4.55;;
47764;SDS011;33529;49.242;8.670;2024-02-16T09:58:32;8.10;;;4.78;;
47764;SDS011;33529;49.242;8.670;2024-02-16T10:01:00;9.23;;;4.97;;
47764;SDS011;33529;49.242;8.670;2024-02-16T10:03:27;7.25;;;4.78;;
47764;SDS011;33529;49.242;8.670;2024-02-16T10:06:09;8.77;;;5.03;;
47764;SDS011;33529;49.242;8.670;2024-02-16T10:11:18;9.48;;;5.03;;
47764;SDS011;33529;49.242;8.670;2024-02-16T10:13:59;6.82;;;5.10;;
47764;SDS011;33529;49.242;8.670;2024-02-16T10:16:27;7.68;;;5.30;;
47764;SDS011;33529;49.242;8.670;2024-02-16T10:19:04;8.35;;;5.57;;
47764;SDS011;33529;49.242;8.670;2024-02-16T10:21:32;6.28;;;4.97;;
47764;SDS011;33529;49.242;8.670;2024-02-16T10:24:01;6.60;;;5.22;;
47764;SDS011;33529;49.242;8.670;2024-02-16T10:26:35;6.85;;;5.15;;
47764;SDS011;33529;49.242;8.670;2024-02-16T10:29:07;7.88;;;4.97;;
47764;SDS011;33529;49.242;8.670;2024-02-16T10:31:40;7.32;;;5.20;;
47764;SDS011;33529;49.242;8.670;2024-02-16T10:34:07;9.60;;;6.00;;
47764;SDS011;33529;49.242;8.670;2024-02-16T10:36:36;9.05;;;4.78;;
47764;SDS011;33529;49.242;8.670;2024-02-16T10:39:05;7.40;;;5.57;;
47764;SDS011;33529;49.242;8.670;2024-02-16T10:41:36;7.28;;;4.78;;
47764;SDS011;33529;49.242;8.670;2024-02-16T10:44:07;8.65;;;5.40;;
47764;SDS011;33529;49.242;8.670;2024-02-16T10:46:35;8.70;;;5.18;;
47764;SDS011;33529;49.242;8.670;2024-02-16T10:49:03;7.13;;;4.68;;
47764;SDS011;33529;49.242;8.670;2024-02-16T10:54:09;5.65;;;4.57;;
47764;SDS011;33529;49.242;8.670;2024-02-16T10:56:38;6.40;;;3.92;;
47764;SDS011;33529;49.242;8.670;2024-02-16T10:59:07;5.15;;;4.22;;
47764;SDS011;33529;49.242;8.670;2024-02-16T11:01:38;5.25;;;4.15;;
47764;SDS011;33529;49.242;8.670;2024-02-16T11:06:52;6.97;;;3.97;;
47764;SDS011;33529;49.242;8.670;2024-02-16T11:09:27;5.95;;;3.78;;
47764;SDS011;33529;49.242;8.670;2024-02-16T11:11:58;6.35;;;3.47;;
47764;SDS011;33529;49.242;8.670;2024-02-16T11:14:43;5.82;;;3.58;;
47764;SDS011;33529;49.242;8.670;2024-02-16T11:17:15;8.68;;;4.07;;
47764;SDS011;33529;49.242;8.670;2024-02-16T11:19:46;5.57;;;3.38;;
47764;SDS011;33529;49.242;8.670;2024-02-16T11:22:17;7.88;;;3.45;;
47764;SDS011;33529;49.242;8.670;2024-02-16T11:24:47;6.07;;;3.17;;
47764;SDS011;33529;49.242;8.670;2024-02-16T11:27:22;4.85;;;3.30;;
47764;SDS011;33529;49.242;8.670;2024-02-16T11:29:50;4.43;;;3.30;;
47764;SDS011;33529;49.242;8.670;2024-02-16T11:32:20;6.45;;;3.83;;
47764;SDS011;33529;49.242;8.670;2024-02-16T11:34:47;6.55;;;3.67;;
47764;SDS011;33529;49.242;8.670;2024-02-16T11:37:15;4.85;;;3.00;;
47764;SDS011;33529;49.242;8.670;2024-02-16T11:39:43;5.53;;;3.10;;
47764;SDS011;33529;49.242;8.670;2024-02-16T11:42:13;5.13;;;2.80;;
47764;SDS011;33529;49.242;8.670;2024-02-16T11:44:52;3.92;;;3.05;;
47764;SDS011;33529;49.242;8.670;2024-02-16T11:47:23;5.45;;;3.05;;
47764;SDS011;33529;49.242;8.670;2024-02-16T11:49:59;6.70;;;2.88;;
47764;SDS011;33529;49.242;8.670;2024-02-16T11:52:27;5.25;;;2.90;;
47764;SDS011;33529;49.242;8.670;2024-02-16T11:54:54;4.32;;;2.58;;
47764;SDS011;33529;49.242;8.670;2024-02-16T11:57:25;4.45;;;2.55;;
47764;SDS011;33529;49.242;8.670;2024-02-16T11:59:52;5.20;;;3.08;;
47764;SDS011;33529;49.242;8.670;2024-02-16T12:02:20;4.32;;;2.70;;
47764;SDS011;33529;49.242;8.670;2024-02-16T12:04:57;9.38;;;3.00;;
47764;SDS011;33529;49.242;8.670;2024-02-16T12:07:29;6.30;;;3.13;;
47764;SDS011;33529;49.242;8.670;2024-02-16T12:09:57;5.13;;;2.78;;
47764;SDS011;33529;49.242;8.670;2024-02-16T12:12:26;6.60;;;2.92;;
47764;SDS011;33529;49.242;8.670;2024-02-16T12:14:54;6.22;;;2.97;;
47764;SDS011;33529;49.242;8.670;2024-02-16T12:17:22;4.72;;;2.50;;
47764;SDS011;33529;49.242;8.670;2024-02-16T12:19:49;5.03;;;2.60;;
47764;SDS011;33529;49.242;8.670;2024-02-16T12:22:18;4.35;;;1.98;;
47764;SDS011;33529;49.242;8.670;2024-02-16T12:24:49;3.70;;;2.38;;
47764;SDS011;33529;49.242;8.670;2024-02-16T12:27:17;5.70;;;2.60;;
47764;SDS011;33529;49.242;8.670;2024-02-16T12:29:44;5.93;;;2.28;;
47764;SDS011;33529;49.242;8.670;2024-02-16T12:32:11;5.57;;;2.80;;
47764;SDS011;33529;49.242;8.670;2024-02-16T12:34:44;3.78;;;2.50;;
47764;SDS011;33529;49.242;8.670;2024-02-16T12:37:11;4.78;;;2.92;;
47764;SDS011;33529;49.242;8.670;2024-02-16T12:39:38;5.05;;;2.78;;
47764;SDS011;33529;49.242;8.670;2024-02-16T12:42:06;6.57;;;2.90;;
47764;SDS011;33529;49.242;8.670;2024-02-16T12:44:34;5.90;;;3.13;;
47764;SDS011;33529;49.242;8.670;2024-02-16T12:47:01;4.47;;;2.60;;
47764;SDS011;33529;49.242;8.670;2024-02-16T12:49:28;4.82;;;2.33;;
47764;SDS011;33529;49.242;8.670;2024-02-16T12:51:55;6.93;;;2.60;;
47764;SDS011;33529;49.242;8.670;2024-02-16T12:54:22;5.75;;;2.92;;
47764;SDS011;33529;49.242;8.670;2024-02-16T12:56:49;7.35;;;2.58;;
47764;SDS011;33529;49.242;8.670;2024-02-16T12:59:18;8.25;;;2.65;;
47764;SDS011;33529;49.242;8.670;2024-02-16T13:01:44;4.88;;;2.70;;
47764;SDS011;33529;49.242;8.670;2024-02-16T13:04:12;4.75;;;2.53;;
47764;SDS011;33529;49.242;8.670;2024-02-16T13:06:47;5.35;;;2.40;;
47764;SDS011;33529;49.242;8.670;2024-02-16T13:09:15;6.60;;;2.40;;
47764;SDS011;33529;49.242;8.670;2024-02-16T13:11:42;4.28;;;2.70;;
47764;SDS011;33529;49.242;8.670;2024-02-16T13:14:09;4.32;;;2.60;;
47764;SDS011;33529;49.242;8.670;2024-02-16T13:16:36;7.72;;;2.83;;
47764;SDS011;33529;49.242;8.670;2024-02-16T13:19:03;4.85;;;2.40;;
47764;SDS011;33529;49.242;8.670;2024-02-16T13:21:30;4.65;;;2.58;;
47764;SDS011;33529;49.242;8.670;2024-02-16T13:23:57;6.63;;;2.60;;
47764;SDS011;33529;49.242;8.670;2024-02-16T13:26:24;5.22;;;2.78;;
47764;SDS011;33529;49.242;8.670;2024-02-16T13:28:51;4.65;;;2.35;;
47764;SDS011;33529;49.242;8.670;2024-02-16T13:31:19;4.78;;;2.42;;
47764;SDS011;33529;49.242;8.670;2024-02-16T13:33:45;5.15;;;2.65;;
47764;SDS011;33529;49.242;8.670;2024-02-16T13:36:12;4.57;;;2.63;;
47764;SDS011;33529;49.242;8.670;2024-02-16T13:38:39;5.45;;;2.50;;
47764;SDS011;33529;49.242;8.670;2024-02-16T13:41:06;4.30;;;2.08;;
47764;SDS011;33529;49.242;8.670;2024-02-16T13:43:33;6.38;;;2.58;;
47764;SDS011;33529;49.242;8.670;2024-02-16T13:46:01;7.68;;;2.42;;
47764;SDS011;33529;49.242;8.670;2024-02-16T13:48:28;7.68;;;3.08;;
47764;SDS011;33529;49.242;8.670;2024-02-16T13:50:56;5.60;;;2.22;;
47764;SDS011;33529;49.242;8.670;2024-02-16T13:53:24;4.25;;;2.38;;
47764;SDS011;33529;49.242;8.670;2024-02-16T13:55:51;5.50;;;2.70;;
47764;SDS011;33529;49.242;8.670;2024-02-16T13:58:17;3.85;;;1.98;;
47764;SDS011;33529;49.242;8.670;2024-02-16T14:00:44;6.18;;;2.58;;
47764;SDS011;33529;49.242;8.670;2024-02-16T14:03:13;4.95;;;1.98;;
47764;SDS011;33529;49.242;8.670;2024-02-16T14:05:41;6.43;;;2.40;;
47764;SDS011;33529;49.242;8.670;2024-02-16T14:08:12;5.78;;;2.13;;
47764;SDS011;33529;49.242;8.670;2024-02-16T14:10:39;3.92;;;2.08;;
47764;SDS011;33529;49.242;8.670;2024-02-16T14:13:06;8.20;;;2.95;;
47764;SDS011;33529;49.242;8.670;2024-02-16T14:15:33;4.45;;;1.85;;
47764;SDS011;33529;49.242;8.670;2024-02-16T14:17:59;4.45;;;2.22;;
47764;SDS011;33529;49.242;8.670;2024-02-16T14:20:37;4.88;;;1.98;;
47764;SDS011;33529;49.242;8.670;2024-02-16T14:23:04;7.20;;;2.67;;
47764;SDS011;33529;49.242;8.670;2024-02-16T14:25:34;4.05;;;1.90;;
47764;SDS011;33529;49.242;8.670;2024-02-16T14:28:04;3.58;;;2.03;;
47764;SDS011;33529;49.242;8.670;2024-02-16T14:30:32;7.50;;;1.98;;
47764;SDS011;33529;49.242;8.670;2024-02-16T14:33:00;5.90;;;1.90;;
47764;SDS011;33529;49.242;8.670;2024-02-16T14:35:31;4.53;;;2.03;;
47764;SDS011;33529;49.242;8.670;2024-02-16T14:38:03;5.30;;;2.15;;
47764;SDS011;33529;49.242;8.670;2024-02-16T14:40:31;2.97;;;2.03;;
47764;SDS011;33529;49.242;8.670;2024-02-16T14:42:59;4.00;;;1.95;;
47764;SDS011;33529;49.242;8.670;2024-02-16T14:45:27;3.75;;;1.77;;
47764;SDS011;33529;49.242;8.670;2024-02-16T14:47:54;5.90;;;2.17;;
47764;SDS011;33529;49.242;8.670;2024-02-16T14:50:21;4.55;;;2.00;;
47764;SDS011;33529;49.242;8.670;2024-02-16T14:52:48;4.75;;;1.83;;
47764;SDS011;33529;49.242;8.670;2024-02-16T14:55:15;3.28;;;1.80;;
47764;SDS011;33529;49.242;8.670;2024-02-16T14:57:43;5.07;;;2.05;;
47764;SDS011;33529;49.242;8.670;2024-02-16T15:00:13;3.88;;;2.00;;